Pagrindinis puslapis
METAR-TAF:

METAR-TAF

Oro uostai :

Išigakis, Japonija

platuma: 24-20N, ilguma: 124-10E, Aukštis: 6 m

Dabartinis oras

Ataskaita buvo paskelbta 1 valandą ir 4 minutes, ne 10:00 UTC
Vėjas 4 kt iš Šiaurės Rytų
Temperatūra 23°C
Drėgmė 100%
Slėgis 1010 hPa
Matomumas 10 km arba daugiau
Mažai debesys ne aukštis 1000 ft
Su prošvaistėmis ne aukštis 5000 ft

METAR: ROIG 311000Z 04004KT 9999 FEW010 BKN050 23/23 Q1010

Laikas: 20:04 (11:04 UTC)

Prognozė

Ataskaita buvo paskelbta 5 valandos ir 54 minutes, ne 05:10 UTC
Prognozė galioja nuo 31 metu 06 UTC su 01 metu 12 UTC
Vėjas 9 kt iš Šiaurės Rytų
Matomumas 10 km arba daugiau
Mažai debesys ne aukštis 800 ft
Su prošvaistėmis ne aukštis 1500 ft

TAF: ROIG 310510Z 3106/0112 04009KT 9999 FEW008 BKN015

Orai ataskaitas ir orų prognozės (METAR, TAF).

turimą stotys yra geltonos ir raudonos taškus žemėlapyje.

Perkelti pele per norėdami pamatyti stoties vardą.

Tada spustelėkite, norėdami matyti oro stebėjimo ir prognozės.

Norėdami pakeisti žemėlapį: spustelėkite ant žalios mygtukų su juodo kryžiaus žemyn,; žalią mygtuką su brūkšneliu, jei norite nutolinti; arba žalių rodyklių gretimoms žemėlapius.


METAR-TAF: